Kotoka International Airport

DGAA · Greater Accra, Ghana

METAR history DGAA · Kotoka International Airport

Below you see METARs of the last few days. Select a year to browse through older METARs, from the year 2007 onwards.

December 3, 2022

Time Code Weather Temp. Visibility Ceiling Wind METAR/SPECI
21:00
V
27 °C 10 km+ - 180° 180° 4 kt METAR DGAA 032100Z 18004KT CAVOK 27/25 Q1010 NOSIG
20:00
V
28 °C 10 km+ - 190° 190° 5 kt METAR DGAA 032000Z 19005KT CAVOK 28/25 Q1009 NOSIG
19:00
V
29 °C 10 km+ - 240° 240° 5 kt METAR DGAA 031900Z 24005KT 210V270 CAVOK 29/23 Q1008 NOSIG
18:00
V
29 °C 10 km+ - 250° 250° 7 kt METAR DGAA 031800Z 25007KT CAVOK 29/25 Q1007 NOSIG
17:00
V
29 °C 10 km+ - 190° 190° 6 kt METAR DGAA 031700Z 19006KT CAVOK 29/24 Q1007 NOSIG
16:00
V
31 °C 10 km+ - 290° 290° 8 kt METAR DGAA 031600Z 29008KT CAVOK 31/23 Q1006 NOSIG
15:00
V
32 °C 10 km+ - 280° 280° 7 kt METAR DGAA 031500Z 28007KT 240V300 CAVOK 32/23 Q1006 NOSIG
14:00
V
32 °C 10 km+ - 270° 270° 8 kt METAR DGAA 031400Z 27008KT 240V300 CAVOK 32/23 Q1006 NOSIG
13:00
V
30 °C 10 km+ - 260° 260° 7 kt METAR DGAA 031300Z 26007KT CAVOK 30/23 Q1007 NOSIG
12:00
V
28 °C 10 km+ - 280° 280° 9 kt METAR DGAA 031200Z 28009KT CAVOK 28/23 Q1009 NOSIG
11:00
V
29 °C 10 km+ - 270° 270° 10 kt METAR DGAA 031100Z 27010KT 220V290 CAVOK 29/23 Q1009 NOSIG
10:00
V
27 °C 8 km - 250° 250° 10 kt METAR DGAA 031000Z 25010KT 8000 FEW015 27/24 Q1010 NOSIG
09:00
V
26 °C 8 km - 250° 250° 8 kt METAR DGAA 030900Z 25008KT 8000 FEW012 26/24 Q1010 NOSIG
08:00
M
25 °C 5 km - 260° 260° 6 kt METAR DGAA 030800Z 26006KT 5000 BR NSC 25/23 Q1010 NOSIG
07:00
M
24 °C 5 km - 280° 280° 5 kt METAR DGAA 030700Z 28005KT 5000 BR FEW013 24/23 Q1009 NOSIG
06:00
M
24 °C 5 km 1,100 ft 250° 250° 5 kt METAR DGAA 030600Z 25005KT 5000 BKN011 24/24 Q1008 NOSIG
05:00
M
25 °C 10 km+ 1,200 ft 250° 250° 5 kt METAR DGAA 030500Z 25005KT 210V290 9999 SCT010 BKN012 25/24 Q1008 NOSIG
03:00
I
25 °C 8 km 800 ft 210° 210° 7 kt METAR DGAA 030300Z 21007KT 8000 -RA OVC008 25/24 Q1008 NOSIG

December 2, 2022

Time Code Weather Temp. Visibility Ceiling Wind METAR/SPECI
23:00
V
24 °C 10 km+ - 260° 260° 6 kt METAR DGAA 022300Z 26006KT 9999 VCTS FEW030CB 24/23 Q1010 NOSIG
22:00
U
24 °C 0 m - 270° 270° 8 kt METAR DGAA 022200Z 27008KT 220V290 TS FEW030CB 24/23 Q1010 NOSIG
20:00
V
28 °C 10 km+ - 280° 280° 6 kt METAR DGAA 022000Z 28006KT 230V310 9999 VCTS SCT020 FEW030CB 28/24 Q1009 NOSIG
18:00
V
28 °C 10 km+ - 210° 210° 11 kt METAR DGAA 021800Z 21011KT 9999 FEW030CB 28/24 Q1007 NOSIG
17:00
V
28 °C 10 km+ - 220° 220° 13 kt METAR DGAA 021700Z 22013KT 9999 FEW030CB 28/24 Q1006 NOSIG
16:00
V
29 °C 10 km+ - 210° 210° 12 kt METAR DGAA 021600Z 21012KT 9999 FEW030CB 29/23 Q1005 NOSIG
14:00
V
31 °C 10 km+ - 190° 190° 11 kt METAR DGAA 021400Z 19011KT 9999 FEW030CB 31/23 Q1006 NOSIG
13:00
V
30 °C 10 km+ - 180° 180° 11 kt METAR DGAA 021300Z 18011KT 140V200 9999 SCT030 SCT048 30/25 Q1007 NOSIG
12:00
V
30 °C 10 km+ - 170° 170° 10 kt METAR DGAA 021200Z 17010KT 130V200 9999 FEW031 30/24 Q1008 NOSIG
11:00
M
30 °C 10 km+ 2,700 ft 200° 200° 6 kt METAR DGAA 021100Z 20006KT 9999 BKN027 30/24 Q1010 NOSIG
10:00
M
29 °C 10 km+ 2,400 ft 230° 230° 7 kt METAR DGAA 021000Z 23007KT 190V270 9999 SCT019 BKN024 29/24 Q1010 NOSIG
09:00
V
28 °C 8 km - 270° 270° 6 kt METAR DGAA 020900Z 27006KT 240V300 8000 FEW014 28/25 Q1010 NOSIG
07:00
V
26 °C 8 km - 260° 260° 6 kt METAR DGAA 020700Z 26006KT 8000 FEW017 FEW030CB 26/25 Q1010 NOSIG
06:00
V
26 °C 8 km - 280° 280° 5 kt METAR DGAA 020600Z 28005KT 8000 FEW019 26/25 Q1009 NOSIG
05:00
V
26 °C 10 km+ - 280° 280° 5 kt METAR DGAA 020500Z 28005KT 9999 FEW015 26/25 Q1009 NOSIG
04:00
V
26 °C 10 km+ - 270° 270° 5 kt METAR DGAA 020400Z 27005KT 9999 FEW015 26/25 Q1008 NOSIG
03:00
V
27 °C 10 km+ - 260° 260° 5 kt METAR DGAA 020300Z 26005KT 9999 SCT013 27/25 Q1008 NOSIG
02:00
M
27 °C 10 km+ 1,300 ft 250° 250° 5 kt METAR DGAA 020200Z 25005KT 9999 BKN013 27/25 Q1009 NOSIG
01:00
M
27 °C 10 km+ 1,300 ft 270° 270° 5 kt METAR DGAA 020100Z 27005KT 230V300 9999 BKN013 27/25 Q1010 NOSIG
00:00
V
28 °C 10 km+ - 240° 240° 8 kt METAR DGAA 020000Z 24008KT 9999 FEW015 28/25 Q1010 NOSIG

December 1, 2022

Time Code Weather Temp. Visibility Ceiling Wind METAR/SPECI
22:00
V
28 °C 10 km+ - 220° 220° 7 kt METAR DGAA 012200Z 22007KT 9999 SCT015 28/25 Q1011 NOSIG
21:00
V
28 °C 10 km+ - 230° 230° 9 kt METAR DGAA 012100Z 23009KT 200V260 9999 SCT016 28/25 Q1011 NOSIG
20:00
V
28 °C 10 km+ - 220° 220° 10 kt METAR DGAA 012000Z 22010KT 9999 FEW016 28/25 Q1010 NOSIG
19:00
V
28 °C 10 km+ - 190° 190° 10 kt METAR DGAA 011900Z 19010KT 9999 FEW019 28/25 Q1009 NOSIG
18:00
V
28 °C 10 km+ - 190° 190° 10 kt METAR DGAA 011800Z 19010KT 9999 FEW016 FEW030CB 28/25 Q1009 NOSIG
17:00
V
29 °C 10 km+ - 190° 190° 10 kt METAR DGAA 011700Z 19010KT 9999 SCT019 29/25 Q1008 NOSIG
16:00
V
29 °C 10 km+ - 190° 190° 12 kt METAR DGAA 011600Z 19012KT 9999 FEW023 FEW030CB 29/24 Q1007 NOSIG
15:00
V
30 °C 10 km+ - 180° 180° 11 kt METAR DGAA 011500Z 18011KT 150V210 9999 FEW019 FEW030CB 30/24 Q1007 NOSIG
14:00
V
31 °C 10 km+ - 190° 190° 13 kt METAR DGAA 011400Z 19013KT 9999 FEW019 FEW030CB 31/24 Q1007 NOSIG
13:00
V
30 °C 10 km+ - 180° 180° 10 kt METAR DGAA 011300Z 18010KT 9999 FEW019 30/23 Q1008 NOSIG
12:00
V
31 °C 10 km+ - 180° 180° 10 kt METAR DGAA 011200Z 18010KT 150V210 9999 FEW019 31/24 Q1009 NOSIG
11:00
V
31 °C 10 km+ - 200° 200° 8 kt METAR DGAA 011100Z 20008KT 170V230 9999 SCT031 31/23 Q1010 NOSIG
10:00
V
30 °C 10 km+ - 220° 220° 6 kt METAR DGAA 011000Z 22006KT 170V250 9999 FEW022 30/24 Q1010 NOSIG

We and third parties follow your internet behavior on our website with cookies. If you continue, we assume you agree with our cookie policy.